sensor_id;sensor_type;location;lat;lon;timestamp;pressure;altitude;pressure_sealevel;temperature;humidity
72548;BME280;60570;50.848;6.776;2023-10-08T00:00:24;101237.94;;;18.66;65.13
72548;BME280;60570;50.848;6.776;2023-10-08T00:01:43;101238.78;;;18.67;65.55
72548;BME280;60570;50.848;6.776;2023-10-08T00:02:45;101241.59;;;18.67;65.24
72548;BME280;60570;50.848;6.776;2023-10-08T00:03:45;101240.78;;;18.66;65.42
72548;BME280;60570;50.848;6.776;2023-10-08T00:04:49;101249.22;;;18.66;65.27
72548;BME280;60570;50.848;6.776;2023-10-08T00:05:52;101246.78;;;18.65;65.45
72548;BME280;60570;50.848;6.776;2023-10-08T00:06:52;101233.50;;;18.65;65.46
72548;BME280;60570;50.848;6.776;2023-10-08T00:07:54;101244.75;;;18.65;65.21
72548;BME280;60570;50.848;6.776;2023-10-08T00:08:56;101243.97;;;18.65;65.50
72548;BME280;60570;50.848;6.776;2023-10-08T00:10:00;101250.38;;;18.65;65.24
72548;BME280;60570;50.848;6.776;2023-10-08T00:11:03;101249.59;;;18.65;65.46
72548;BME280;60570;50.848;6.776;2023-10-08T00:12:10;101250.75;;;18.64;65.28
72548;BME280;60570;50.848;6.776;2023-10-08T00:13:11;101253.56;;;18.64;65.43
72548;BME280;60570;50.848;6.776;2023-10-08T00:14:12;101251.59;;;18.64;65.46
72548;BME280;60570;50.848;6.776;2023-10-08T00:15:21;101255.56;;;18.63;65.33
72548;BME280;60570;50.848;6.776;2023-10-08T00:16:25;101252.75;;;18.63;65.44
72548;BME280;60570;50.848;6.776;2023-10-08T00:17:28;101263.22;;;18.63;65.26
72548;BME280;60570;50.848;6.776;2023-10-08T00:18:31;101250.31;;;18.62;65.48
72548;BME280;60570;50.848;6.776;2023-10-08T00:19:33;101258.75;;;18.62;65.33
72548;BME280;60570;50.848;6.776;2023-10-08T00:20:36;101248.72;;;18.61;65.48
72548;BME280;60570;50.848;6.776;2023-10-08T00:21:42;101255.13;;;18.61;65.33
72548;BME280;60570;50.848;6.776;2023-10-08T00:22:45;101250.69;;;18.60;65.38
72548;BME280;60570;50.848;6.776;2023-10-08T00:23:47;101255.94;;;18.62;65.29
72548;BME280;60570;50.848;6.776;2023-10-08T00:24:53;101261.56;;;18.62;65.39
72548;BME280;60570;50.848;6.776;2023-10-08T00:25:58;101258.75;;;18.62;65.55
72548;BME280;60570;50.848;6.776;2023-10-08T00:27:05;101261.13;;;18.60;65.56
72548;BME280;60570;50.848;6.776;2023-10-08T00:28:07;101257.16;;;18.61;65.59
72548;BME280;60570;50.848;6.776;2023-10-08T00:29:11;101249.06;;;18.59;65.51
72548;BME280;60570;50.848;6.776;2023-10-08T00:30:21;101250.69;;;18.60;65.59
72548;BME280;60570;50.848;6.776;2023-10-08T00:31:23;101249.06;;;18.59;65.55
72548;BME280;60570;50.848;6.776;2023-10-08T00:32:26;101251.88;;;18.59;65.48
72548;BME280;60570;50.848;6.776;2023-10-08T00:33:28;101247.06;;;18.60;65.33
72548;BME280;60570;50.848;6.776;2023-10-08T00:34:30;101249.06;;;18.59;65.73
72548;BME280;60570;50.848;6.776;2023-10-08T00:35:31;101254.69;;;18.59;65.50
72548;BME280;60570;50.848;6.776;2023-10-08T00:36:32;101253.50;;;18.60;65.58
72548;BME280;60570;50.848;6.776;2023-10-08T00:37:34;101255.50;;;18.60;65.64
72548;BME280;60570;50.848;6.776;2023-10-08T00:38:36;101257.50;;;18.59;65.44
72548;BME280;60570;50.848;6.776;2023-10-08T00:39:37;101259.13;;;18.60;65.54
72548;BME280;60570;50.848;6.776;2023-10-08T00:40:40;101258.31;;;18.60;65.56
72548;BME280;60570;50.848;6.776;2023-10-08T00:41:45;101263.13;;;18.59;65.48
72548;BME280;60570;50.848;6.776;2023-10-08T00:42:47;101262.34;;;18.59;65.43
72548;BME280;60570;50.848;6.776;2023-10-08T00:43:51;101269.97;;;18.58;65.48
72548;BME280;60570;50.848;6.776;2023-10-08T00:44:51;101267.13;;;18.58;65.41
72548;BME280;60570;50.848;6.776;2023-10-08T00:45:54;101267.97;;;18.59;65.61
72548;BME280;60570;50.848;6.776;2023-10-08T00:46:55;101261.50;;;18.58;65.47
72548;BME280;60570;50.848;6.776;2023-10-08T00:47:56;101265.53;;;18.57;65.52
72548;BME280;60570;50.848;6.776;2023-10-08T00:49:00;101267.13;;;18.58;65.48
72548;BME280;60570;50.848;6.776;2023-10-08T00:50:19;101265.53;;;18.57;65.42
72548;BME280;60570;50.848;6.776;2023-10-08T00:51:21;101273.97;;;18.57;65.44
72548;BME280;60570;50.848;6.776;2023-10-08T00:52:42;101265.53;;;18.57;65.59
72548;BME280;60570;50.848;6.776;2023-10-08T00:53:58;101263.50;;;18.58;65.76
72548;BME280;60570;50.848;6.776;2023-10-08T00:55:05;101262.72;;;18.57;65.43
72548;BME280;60570;50.848;6.776;2023-10-08T00:56:21;101259.91;;;18.57;65.49
72548;BME280;60570;50.848;6.776;2023-10-08T00:57:25;101262.72;;;18.57;65.61
72548;BME280;60570;50.848;6.776;2023-10-08T00:58:28;101259.91;;;18.57;65.72
72548;BME280;60570;50.848;6.776;2023-10-08T00:59:31;101272.31;;;18.56;65.34
72548;BME280;60570;50.848;6.776;2023-10-08T01:00:44;101260.25;;;18.56;65.54
72548;BME280;60570;50.848;6.776;2023-10-08T01:01:48;101258.25;;;18.56;65.61
72548;BME280;60570;50.848;6.776;2023-10-08T01:02:51;101259.91;;;18.57;65.44
72548;BME280;60570;50.848;6.776;2023-10-08T01:04:00;101261.88;;;18.57;65.48
72548;BME280;60570;50.848;6.776;2023-10-08T01:05:04;101258.25;;;18.56;65.52
72548;BME280;60570;50.848;6.776;2023-10-08T01:06:05;101258.25;;;18.56;65.62
72548;BME280;60570;50.848;6.776;2023-10-08T01:07:10;101258.25;;;18.56;65.38
72548;BME280;60570;50.848;6.776;2023-10-08T01:08:13;101255.44;;;18.56;65.60
72548;BME280;60570;50.848;6.776;2023-10-08T01:09:18;101253.44;;;18.57;65.55
72548;BME280;60570;50.848;6.776;2023-10-08T01:10:22;101248.19;;;18.55;65.63
72548;BME280;60570;50.848;6.776;2023-10-08T01:11:25;101249.81;;;18.56;65.58
72548;BME280;60570;50.848;6.776;2023-10-08T01:12:33;101254.63;;;18.56;65.38
72548;BME280;60570;50.848;6.776;2023-10-08T01:13:36;101254.63;;;18.56;65.34
72548;BME280;60570;50.848;6.776;2023-10-08T01:14:44;101249.00;;;18.56;65.61
72548;BME280;60570;50.848;6.776;2023-10-08T01:15:46;101253.00;;;18.55;65.43
72548;BME280;60570;50.848;6.776;2023-10-08T01:16:50;101246.56;;;18.54;65.63
72548;BME280;60570;50.848;6.776;2023-10-08T01:17:52;101234.47;;;18.54;65.50
72548;BME280;60570;50.848;6.776;2023-10-08T01:18:58;101239.31;;;18.53;65.65
72548;BME280;60570;50.848;6.776;2023-10-08T01:20:00;101240.91;;;18.54;65.44
72548;BME280;60570;50.848;6.776;2023-10-08T01:21:10;101245.72;;;18.54;65.67
72548;BME280;60570;50.848;6.776;2023-10-08T01:22:19;101247.75;;;18.53;65.68
72548;BME280;60570;50.848;6.776;2023-10-08T01:23:22;101252.19;;;18.54;65.62
72548;BME280;60570;50.848;6.776;2023-10-08T01:24:27;101257.81;;;18.54;65.67
72548;BME280;60570;50.848;6.776;2023-10-08T01:25:30;101256.97;;;18.54;65.48
72548;BME280;60570;50.848;6.776;2023-10-08T01:26:32;101259.00;;;18.53;65.56
72548;BME280;60570;50.848;6.776;2023-10-08T01:27:32;101265.44;;;18.54;65.52
72548;BME280;60570;50.848;6.776;2023-10-08T01:28:34;101263.00;;;18.52;65.49
72548;BME280;60570;50.848;6.776;2023-10-08T01:29:35;101264.97;;;18.52;65.49
72548;BME280;60570;50.848;6.776;2023-10-08T01:30:36;101267.78;;;18.52;65.48
72548;BME280;60570;50.848;6.776;2023-10-08T01:31:41;101260.56;;;18.51;65.42
72548;BME280;60570;50.848;6.776;2023-10-08T01:32:42;101250.91;;;18.52;65.59
72548;BME280;60570;50.848;6.776;2023-10-08T01:33:44;101258.91;;;18.50;65.59
72548;BME280;60570;50.848;6.776;2023-10-08T01:34:47;101254.47;;;18.49;65.49
72548;BME280;60570;50.848;6.776;2023-10-08T01:35:49;101257.28;;;18.49;65.56
72548;BME280;60570;50.848;6.776;2023-10-08T01:36:50;101250.84;;;18.48;65.62
72548;BME280;60570;50.848;6.776;2023-10-08T01:37:52;101254.47;;;18.49;65.71
72548;BME280;60570;50.848;6.776;2023-10-08T01:38:56;101260.13;;;18.49;65.65
72548;BME280;60570;50.848;6.776;2023-10-08T01:39:57;101256.84;;;18.47;65.50
72548;BME280;60570;50.848;6.776;2023-10-08T01:41:03;101256.47;;;18.48;65.45
72548;BME280;60570;50.848;6.776;2023-10-08T01:42:18;101248.41;;;18.47;65.58
72548;BME280;60570;50.848;6.776;2023-10-08T01:43:21;101256.03;;;18.46;65.46
72548;BME280;60570;50.848;6.776;2023-10-08T01:44:21;101243.94;;;18.46;65.68
72548;BME280;60570;50.848;6.776;2023-10-08T01:45:24;101245.59;;;18.47;65.71
72548;BME280;60570;50.848;6.776;2023-10-08T01:46:25;101243.94;;;18.46;65.35
72548;BME280;60570;50.848;6.776;2023-10-08T01:47:27;101237.53;;;18.45;65.69
72548;BME280;60570;50.848;6.776;2023-10-08T01:48:30;101236.72;;;18.45;65.76
72548;BME280;60570;50.848;6.776;2023-10-08T01:49:37;101237.53;;;18.45;65.57
72548;BME280;60570;50.848;6.776;2023-10-08T01:50:39;101241.50;;;18.44;65.50
72548;BME280;60570;50.848;6.776;2023-10-08T01:51:41;101238.69;;;18.44;65.66
72548;BME280;60570;50.848;6.776;2023-10-08T01:52:47;101238.69;;;18.44;65.63
72548;BME280;60570;50.848;6.776;2023-10-08T01:53:52;101239.53;;;18.45;65.59
72548;BME280;60570;50.848;6.776;2023-10-08T01:54:54;101242.72;;;18.43;65.60
72548;BME280;60570;50.848;6.776;2023-10-08T01:55:56;101248.34;;;18.43;65.81
72548;BME280;60570;50.848;6.776;2023-10-08T01:56:56;101249.97;;;18.44;65.78
72548;BME280;60570;50.848;6.776;2023-10-08T01:57:57;101253.16;;;18.43;65.57
72548;BME280;60570;50.848;6.776;2023-10-08T01:58:58;101259.59;;;18.43;65.55
72548;BME280;60570;50.848;6.776;2023-10-08T02:00:00;101267.22;;;18.43;65.48
72548;BME280;60570;50.848;6.776;2023-10-08T02:01:05;101265.56;;;18.42;65.71
72548;BME280;60570;50.848;6.776;2023-10-08T02:02:12;101271.19;;;18.42;65.55
72548;BME280;60570;50.848;6.776;2023-10-08T02:03:15;101266.75;;;18.41;65.72
72548;BME280;60570;50.848;6.776;2023-10-08T02:04:18;101259.13;;;18.41;65.59
72548;BME280;60570;50.848;6.776;2023-10-08T02:05:18;101265.91;;;18.40;65.59
72548;BME280;60570;50.848;6.776;2023-10-08T02:06:21;101269.56;;;18.41;65.63
72548;BME280;60570;50.848;6.776;2023-10-08T02:07:21;101273.56;;;18.40;65.67
72548;BME280;60570;50.848;6.776;2023-10-08T02:08:23;101283.63;;;18.41;65.63
72548;BME280;60570;50.848;6.776;2023-10-08T02:09:25;101275.56;;;18.39;65.42
72548;BME280;60570;50.848;6.776;2023-10-08T02:10:27;101278.38;;;18.39;65.75
72548;BME280;60570;50.848;6.776;2023-10-08T02:11:29;101272.75;;;18.39;65.85
72548;BME280;60570;50.848;6.776;2023-10-08T02:12:30;101273.13;;;18.38;65.93
72548;BME280;60570;50.848;6.776;2023-10-08T02:13:34;101267.50;;;18.38;65.91
72548;BME280;60570;50.848;6.776;2023-10-08T02:14:40;101269.09;;;18.39;65.61
72548;BME280;60570;50.848;6.776;2023-10-08T02:15:42;101273.91;;;18.38;65.78
72548;BME280;60570;50.848;6.776;2023-10-08T02:16:44;101277.53;;;18.39;65.74
72548;BME280;60570;50.848;6.776;2023-10-08T02:17:45;101265.47;;;18.38;65.73
72548;BME280;60570;50.848;6.776;2023-10-08T02:18:46;101266.66;;;18.37;65.78
72548;BME280;60570;50.848;6.776;2023-10-08T02:19:47;101266.66;;;18.37;65.60
72548;BME280;60570;50.848;6.776;2023-10-08T02:20:48;101261.03;;;18.37;65.83
72548;BME280;60570;50.848;6.776;2023-10-08T02:21:49;101251.78;;;18.37;65.67
72548;BME280;60570;50.848;6.776;2023-10-08T02:22:50;101252.59;;;18.37;65.76
72548;BME280;60570;50.848;6.776;2023-10-08T02:23:51;101255.41;;;18.37;65.80
72548;BME280;60570;50.848;6.776;2023-10-08T02:24:54;101262.22;;;18.36;65.62
72548;BME280;60570;50.848;6.776;2023-10-08T02:26:01;101252.97;;;18.36;65.75
72548;BME280;60570;50.848;6.776;2023-10-08T02:27:02;101252.16;;;18.35;65.61
72548;BME280;60570;50.848;6.776;2023-10-08T02:28:04;101251.34;;;18.35;65.70
72548;BME280;60570;50.848;6.776;2023-10-08T02:29:04;101249.34;;;18.35;65.71
72548;BME280;60570;50.848;6.776;2023-10-08T02:30:11;101246.91;;;18.34;65.78
72548;BME280;60570;50.848;6.776;2023-10-08T02:31:12;101246.09;;;18.33;65.71
72548;BME280;60570;50.848;6.776;2023-10-08T02:32:14;101252.53;;;18.34;65.71
72548;BME280;60570;50.848;6.776;2023-10-08T02:33:14;101255.34;;;18.34;65.55
72548;BME280;60570;50.848;6.776;2023-10-08T02:34:16;101260.97;;;18.34;65.64
72548;BME280;60570;50.848;6.776;2023-10-08T02:35:16;101273.84;;;18.35;65.71
72548;BME280;60570;50.848;6.776;2023-10-08T02:36:18;101266.59;;;18.34;65.79
72548;BME280;60570;50.848;6.776;2023-10-08T02:37:19;101274.22;;;18.33;65.75
72548;BME280;60570;50.848;6.776;2023-10-08T02:38:21;101275.03;;;18.34;65.73
72548;BME280;60570;50.848;6.776;2023-10-08T02:39:23;101283.47;;;18.34;65.62
72548;BME280;60570;50.848;6.776;2023-10-08T02:40:27;101279.84;;;18.33;65.81
72548;BME280;60570;50.848;6.776;2023-10-08T02:41:28;101276.22;;;18.33;65.72
72548;BME280;60570;50.848;6.776;2023-10-08T02:42:29;101272.22;;;18.34;65.58
72548;BME280;60570;50.848;6.776;2023-10-08T02:43:32;101275.38;;;18.32;65.51
72548;BME280;60570;50.848;6.776;2023-10-08T02:44:34;101271.78;;;18.32;65.63
72548;BME280;60570;50.848;6.776;2023-10-08T02:45:35;101269.75;;;18.32;65.67
72548;BME280;60570;50.848;6.776;2023-10-08T02:46:39;101270.97;;;18.31;65.78
72548;BME280;60570;50.848;6.776;2023-10-08T02:47:41;101271.78;;;18.32;65.89
72548;BME280;60570;50.848;6.776;2023-10-08T02:48:45;101274.97;;;18.30;65.77
72548;BME280;60570;50.848;6.776;2023-10-08T02:49:47;101270.97;;;18.31;65.62
72548;BME280;60570;50.848;6.776;2023-10-08T02:50:48;101270.13;;;18.31;65.85
72548;BME280;60570;50.848;6.776;2023-10-08T02:51:50;101274.97;;;18.30;65.82
72548;BME280;60570;50.848;6.776;2023-10-08T02:52:52;101277.78;;;18.30;65.91
72548;BME280;60570;50.848;6.776;2023-10-08T02:53:53;101284.19;;;18.31;65.56
72548;BME280;60570;50.848;6.776;2023-10-08T02:54:54;101281.38;;;18.31;65.91
72548;BME280;60570;50.848;6.776;2023-10-08T02:55:57;101274.16;;;18.30;65.87
72548;BME280;60570;50.848;6.776;2023-10-08T02:56:58;101280.59;;;18.30;65.87
72548;BME280;60570;50.848;6.776;2023-10-08T02:58:03;101279.78;;;18.30;65.84
72548;BME280;60570;50.848;6.776;2023-10-08T02:59:05;101281.75;;;18.29;65.64
72548;BME280;60570;50.848;6.776;2023-10-08T03:00:10;101287.00;;;18.31;65.68
72548;BME280;60570;50.848;6.776;2023-10-08T03:01:14;101276.97;;;18.30;65.60
72548;BME280;60570;50.848;6.776;2023-10-08T03:02:15;101275.31;;;18.29;65.90
72548;BME280;60570;50.848;6.776;2023-10-08T03:03:18;101276.97;;;18.30;65.77
72548;BME280;60570;50.848;6.776;2023-10-08T03:04:19;101271.34;;;18.30;65.69
72548;BME280;60570;50.848;6.776;2023-10-08T03:05:25;101261.25;;;18.29;65.84
72548;BME280;60570;50.848;6.776;2023-10-08T03:06:30;101261.25;;;18.29;65.99
72548;BME280;60570;50.848;6.776;2023-10-08T03:07:33;101247.19;;;18.29;65.80
72548;BME280;60570;50.848;6.776;2023-10-08T03:08:33;101254.84;;;18.28;65.78
72548;BME280;60570;50.848;6.776;2023-10-08T03:09:37;101248.38;;;18.28;65.61
72548;BME280;60570;50.848;6.776;2023-10-08T03:10:41;101263.28;;;18.28;65.72
72548;BME280;60570;50.848;6.776;2023-10-08T03:11:45;101261.63;;;18.27;65.52
72548;BME280;60570;50.848;6.776;2023-10-08T03:12:48;101263.63;;;18.27;65.61
72548;BME280;60570;50.848;6.776;2023-10-08T03:13:50;101265.25;;;18.28;65.52
72548;BME280;60570;50.848;6.776;2023-10-08T03:14:52;101263.28;;;18.28;65.65
72548;BME280;60570;50.848;6.776;2023-10-08T03:16:12;101268.06;;;18.28;65.72
72548;BME280;60570;50.848;6.776;2023-10-08T03:17:13;101278.50;;;18.27;65.51
72548;BME280;60570;50.848;6.776;2023-10-08T03:18:20;101278.13;;;18.29;65.92
72548;BME280;60570;50.848;6.776;2023-10-08T03:19:21;101275.69;;;18.27;65.62
72548;BME280;60570;50.848;6.776;2023-10-08T03:20:23;101283.31;;;18.27;65.90
72548;BME280;60570;50.848;6.776;2023-10-08T03:21:38;101284.50;;;18.26;65.80
72548;BME280;60570;50.848;6.776;2023-10-08T03:22:51;101288.94;;;18.27;65.55
72548;BME280;60570;50.848;6.776;2023-10-08T03:23:51;101288.13;;;18.26;65.84
72548;BME280;60570;50.848;6.776;2023-10-08T03:24:57;101278.88;;;18.26;65.67
72548;BME280;60570;50.848;6.776;2023-10-08T03:25:58;101281.69;;;18.26;65.80
72548;BME280;60570;50.848;6.776;2023-10-08T03:27:00;101280.50;;;18.27;65.79
72548;BME280;60570;50.848;6.776;2023-10-08T03:28:07;101283.69;;;18.25;65.83
72548;BME280;60570;50.848;6.776;2023-10-08T03:29:09;101284.50;;;18.26;65.56
72548;BME280;60570;50.848;6.776;2023-10-08T03:30:15;101281.69;;;18.26;65.71
72548;BME280;60570;50.848;6.776;2023-10-08T03:31:16;101281.69;;;18.26;65.72
72548;BME280;60570;50.848;6.776;2023-10-08T03:32:19;101271.59;;;18.25;65.57
72548;BME280;60570;50.848;6.776;2023-10-08T03:33:27;101286.50;;;18.25;65.92
72548;BME280;60570;50.848;6.776;2023-10-08T03:34:29;101287.69;;;18.24;65.63
72548;BME280;60570;50.848;6.776;2023-10-08T03:35:34;101285.66;;;18.25;65.79
72548;BME280;60570;50.848;6.776;2023-10-08T03:36:37;101290.50;;;18.24;65.75
72548;BME280;60570;50.848;6.776;2023-10-08T03:37:44;101290.50;;;18.24;65.82
72548;BME280;60570;50.848;6.776;2023-10-08T03:38:46;101296.13;;;18.24;65.64
72548;BME280;60570;50.848;6.776;2023-10-08T03:39:51;101293.31;;;18.24;65.91
72548;BME280;60570;50.848;6.776;2023-10-08T03:40:51;101300.09;;;18.23;65.68
72548;BME280;60570;50.848;6.776;2023-10-08T03:41:57;101302.09;;;18.23;65.62
72548;BME280;60570;50.848;6.776;2023-10-08T03:43:07;101299.28;;;18.23;65.73
72548;BME280;60570;50.848;6.776;2023-10-08T03:44:15;101299.28;;;18.23;65.60
72548;BME280;60570;50.848;6.776;2023-10-08T03:45:17;101301.31;;;18.22;65.63
72548;BME280;60570;50.848;6.776;2023-10-08T03:46:33;101297.66;;;18.22;65.77
72548;BME280;60570;50.848;6.776;2023-10-08T03:47:39;101300.47;;;18.22;65.86
72548;BME280;60570;50.848;6.776;2023-10-08T03:48:46;101296.03;;;18.21;65.54
72548;BME280;60570;50.848;6.776;2023-10-08T03:49:48;101295.22;;;18.20;65.86
72548;BME280;60570;50.848;6.776;2023-10-08T03:50:50;101296.84;;;18.21;65.64
72548;BME280;60570;50.848;6.776;2023-10-08T03:51:57;101292.41;;;18.20;65.85
72548;BME280;60570;50.848;6.776;2023-10-08T03:52:57;101299.22;;;18.19;65.70
72548;BME280;60570;50.848;6.776;2023-10-08T03:54:03;101285.16;;;18.19;65.79
72548;BME280;60570;50.848;6.776;2023-10-08T03:55:15;101287.97;;;18.19;65.95
72548;BME280;60570;50.848;6.776;2023-10-08T03:56:27;101286.78;;;18.20;65.89
72548;BME280;60570;50.848;6.776;2023-10-08T03:57:30;101287.59;;;18.21;65.94
72548;BME280;60570;50.848;6.776;2023-10-08T03:58:44;101294.41;;;18.20;65.60
72548;BME280;60570;50.848;6.776;2023-10-08T03:59:47;101286.34;;;18.18;65.67
72548;BME280;60570;50.848;6.776;2023-10-08T04:00:49;101291.97;;;18.18;65.59
72548;BME280;60570;50.848;6.776;2023-10-08T04:01:50;101297.59;;;18.18;65.70
72548;BME280;60570;50.848;6.776;2023-10-08T04:02:55;101289.16;;;18.18;65.78
72548;BME280;60570;50.848;6.776;2023-10-08T04:03:55;101286.34;;;18.18;66.02
72548;BME280;60570;50.848;6.776;2023-10-08T04:05:01;101286.34;;;18.18;65.99
72548;BME280;60570;50.848;6.776;2023-10-08T04:06:15;101286.34;;;18.18;65.62
72548;BME280;60570;50.848;6.776;2023-10-08T04:07:22;101286.34;;;18.18;65.86
72548;BME280;60570;50.848;6.776;2023-10-08T04:08:51;101292.31;;;18.17;65.80
72548;BME280;60570;50.848;6.776;2023-10-08T04:10:05;101287.50;;;18.17;65.84
72548;BME280;60570;50.848;6.776;2023-10-08T04:11:34;101295.94;;;18.17;65.89
72548;BME280;60570;50.848;6.776;2023-10-08T04:12:36;101299.97;;;18.16;65.80
72548;BME280;60570;50.848;6.776;2023-10-08T04:13:45;101287.88;;;18.16;65.83
72548;BME280;60570;50.848;6.776;2023-10-08T04:14:48;101299.13;;;18.16;65.71
72548;BME280;60570;50.848;6.776;2023-10-08T04:15:50;101295.50;;;18.15;65.85
72548;BME280;60570;50.848;6.776;2023-10-08T04:16:51;101298.31;;;18.15;65.89
72548;BME280;60570;50.848;6.776;2023-10-08T04:17:52;101288.25;;;18.14;65.75
72548;BME280;60570;50.848;6.776;2023-10-08T04:18:53;101287.44;;;18.14;65.84
72548;BME280;60570;50.848;6.776;2023-10-08T04:19:55;101291.91;;;18.15;65.92
72548;BME280;60570;50.848;6.776;2023-10-08T04:20:58;101282.63;;;18.14;65.87
72548;BME280;60570;50.848;6.776;2023-10-08T04:22:04;101293.88;;;18.14;65.79
72548;BME280;60570;50.848;6.776;2023-10-08T04:23:15;101291.06;;;18.14;65.79
72548;BME280;60570;50.848;6.776;2023-10-08T04:24:18;101291.06;;;18.14;65.77
72548;BME280;60570;50.848;6.776;2023-10-08T04:25:20;101299.50;;;18.14;65.63
72548;BME280;60570;50.848;6.776;2023-10-08T04:26:21;101288.25;;;18.14;65.69
72548;BME280;60570;50.848;6.776;2023-10-08T04:27:23;101289.44;;;18.13;65.52
72548;BME280;60570;50.848;6.776;2023-10-08T04:28:30;101290.63;;;18.12;65.75
72548;BME280;60570;50.848;6.776;2023-10-08T04:29:32;101290.63;;;18.12;65.81
72548;BME280;60570;50.848;6.776;2023-10-08T04:30:36;101287.81;;;18.12;65.87
72548;BME280;60570;50.848;6.776;2023-10-08T04:31:37;101289.81;;;18.12;66.00
72548;BME280;60570;50.848;6.776;2023-10-08T04:32:40;101287.38;;;18.10;65.97
72548;BME280;60570;50.848;6.776;2023-10-08T04:33:43;101287.81;;;18.12;65.96
72548;BME280;60570;50.848;6.776;2023-10-08T04:34:47;101284.56;;;18.10;65.96
72548;BME280;60570;50.848;6.776;2023-10-08T04:35:52;101294.59;;;18.11;65.65
72548;BME280;60570;50.848;6.776;2023-10-08T04:36:56;101288.97;;;18.11;65.84
72548;BME280;60570;50.848;6.776;2023-10-08T04:38:01;101288.97;;;18.11;65.86
72548;BME280;60570;50.848;6.776;2023-10-08T04:39:03;101290.19;;;18.10;65.93
72548;BME280;60570;50.848;6.776;2023-10-08T04:40:13;101288.97;;;18.11;66.10
72548;BME280;60570;50.848;6.776;2023-10-08T04:41:16;101292.16;;;18.10;65.80
72548;BME280;60570;50.848;6.776;2023-10-08T04:42:19;101299.78;;;18.09;65.78
72548;BME280;60570;50.848;6.776;2023-10-08T04:43:26;101294.16;;;18.09;66.01
72548;BME280;60570;50.848;6.776;2023-10-08T04:44:27;101295.34;;;18.08;65.84
72548;BME280;60570;50.848;6.776;2023-10-08T04:45:33;101294.97;;;18.10;65.95
72548;BME280;60570;50.848;6.776;2023-10-08T04:46:34;101299.78;;;18.09;65.92
72548;BME280;60570;50.848;6.776;2023-10-08T04:47:46;101288.91;;;18.08;66.06
72548;BME280;60570;50.848;6.776;2023-10-08T04:48:49;101296.19;;;18.09;65.84
72548;BME280;60570;50.848;6.776;2023-10-08T04:49:51;101294.53;;;18.08;66.04
72548;BME280;60570;50.848;6.776;2023-10-08T04:50:53;101304.25;;;18.10;66.12
72548;BME280;60570;50.848;6.776;2023-10-08T04:51:59;101307.44;;;18.09;65.72
72548;BME280;60570;50.848;6.776;2023-10-08T04:53:00;101304.94;;;18.07;65.78
72548;BME280;60570;50.848;6.776;2023-10-08T04:54:08;101297.34;;;18.08;65.95
72548;BME280;60570;50.848;6.776;2023-10-08T04:55:09;101303.78;;;18.08;65.84
72548;BME280;60570;50.848;6.776;2023-10-08T04:56:20;101311.41;;;18.08;65.87
72548;BME280;60570;50.848;6.776;2023-10-08T04:57:23;101314.22;;;18.08;66.00
72548;BME280;60570;50.848;6.776;2023-10-08T04:58:26;101316.19;;;18.07;66.04
72548;BME280;60570;50.848;6.776;2023-10-08T04:59:33;101314.22;;;18.08;66.02
72548;BME280;60570;50.848;6.776;2023-10-08T05:00:36;101313.06;;;18.09;65.70
72548;BME280;60570;50.848;6.776;2023-10-08T05:01:42;101309.78;;;18.07;65.92
72548;BME280;60570;50.848;6.776;2023-10-08T05:02:48;101304.50;;;18.05;65.72
72548;BME280;60570;50.848;6.776;2023-10-08T05:03:51;101290.44;;;18.05;65.76
72548;BME280;60570;50.848;6.776;2023-10-08T05:05:07;101300.53;;;18.06;65.82
72548;BME280;60570;50.848;6.776;2023-10-08T05:06:23;101308.13;;;18.06;65.84
72548;BME280;60570;50.848;6.776;2023-10-08T05:07:54;101312.94;;;18.05;65.88
72548;BME280;60570;50.848;6.776;2023-10-08T05:09:08;101316.94;;;18.04;65.96
72548;BME280;60570;50.848;6.776;2023-10-08T05:10:22;101323.41;;;18.05;65.82
72548;BME280;60570;50.848;6.776;2023-10-08T05:11:55;101322.56;;;18.04;65.96
72548;BME280;60570;50.848;6.776;2023-10-08T05:13:11;101318.13;;;18.03;65.92
72548;BME280;60570;50.848;6.776;2023-10-08T05:14:30;101323.75;;;18.03;66.01
72548;BME280;60570;50.848;6.776;2023-10-08T05:15:34;101321.28;;;18.02;65.92
72548;BME280;60570;50.848;6.776;2023-10-08T05:16:42;101328.56;;;18.03;65.78
72548;BME280;60570;50.848;6.776;2023-10-08T05:18:00;101326.91;;;18.02;65.88
72548;BME280;60570;50.848;6.776;2023-10-08T05:19:13;101320.50;;;18.01;66.14
72548;BME280;60570;50.848;6.776;2023-10-08T05:20:47;101320.84;;;18.00;65.93
72548;BME280;60570;50.848;6.776;2023-10-08T05:22:02;101320.06;;;17.99;65.98
72548;BME280;60570;50.848;6.776;2023-10-08T05:23:19;101314.44;;;17.99;65.97
72548;BME280;60570;50.848;6.776;2023-10-08T05:24:53;101303.19;;;17.99;66.10
72548;BME280;60570;50.848;6.776;2023-10-08T05:26:07;101296.75;;;17.99;65.86
72548;BME280;60570;50.848;6.776;2023-10-08T05:27:09;101301.53;;;17.98;66.05
72548;BME280;60570;50.848;6.776;2023-10-08T05:28:25;101295.91;;;17.98;66.08
72548;BME280;60570;50.848;6.776;2023-10-08T05:29:26;101303.91;;;17.96;66.13
72548;BME280;60570;50.848;6.776;2023-10-08T05:30:52;101299.91;;;17.97;66.01
72548;BME280;60570;50.848;6.776;2023-10-08T05:32:11;101297.13;;;17.97;65.93
72548;BME280;60570;50.848;6.776;2023-10-08T05:33:37;101304.72;;;17.97;66.02
72548;BME280;60570;50.848;6.776;2023-10-08T05:35:00;101323.22;;;17.98;65.98
72548;BME280;60570;50.848;6.776;2023-10-08T05:36:15;101323.59;;;17.96;66.11
72548;BME280;60570;50.848;6.776;2023-10-08T05:37:19;101329.19;;;17.96;65.90
72548;BME280;60570;50.848;6.776;2023-10-08T05:38:34;101328.38;;;17.96;65.91
72548;BME280;60570;50.848;6.776;2023-10-08T05:40:00;101326.41;;;17.96;66.28
72548;BME280;60570;50.848;6.776;2023-10-08T05:41:18;101319.16;;;17.95;66.08